• Join FlightAware (Why Join?)
  • Login
  • US Flag 
08:03AM EDT


 

Airport Tracker/Info


-or-


 

Live Flight TrackerFlight Track Log ✈ VH-YRE ✈ 17-May-2014 ✈ YRED / RCL - YBSU / MCY

Flight Track Log - Related Links

Times and Time Zones

All times are in EDT time to prevent confusion due to time zone crossing. See the VH-YRE flight status page for this flight to view local times or setup timezone preferences in your user account.

Time Position Orientation Groundspeed Altitude Reporting Facility
EDT Latitude Longitude Course Direction KTS MPH feet Rate Location/Type
11:41PM -27.1673 153.0394 322° Northwest 104 120 1,800  Level Aus ATC (RADAR)
11:43PM -27.1223 153.0003 322° Northwest 92 106 3,100 360 Climbing Aus ATC (RADAR)
11:45PM -27.0722 152.9620 326° Northwest 121 139 3,500 60 Climbing Aus ATC (RADAR)
11:47PM -27.0199 152.9181 323° Northwest 120 138 3,500  Level Aus ATC (RADAR)
11:49PM -26.9651 152.8757 325° Northwest 116 133 3,500  Level Aus ATC (RADAR)
11:51PM -26.9203 152.8379 323° Northwest 119 137 3,500  Level Aus ATC (RADAR)
11:53PM -26.8679 152.7756 313° West 121 139 3,500  Level Aus ATC (RADAR)
11:55PM -26.8178 152.7122 312° West 131 151 3,500  Level Aus ATC (RADAR)
11:57PM -26.7621 152.6790 332° Northwest 126 145 3,500  Level Aus ATC (RADAR)
11:59PM -26.6886 152.6527 342° North 121 139 3,500 120 Level Aus ATC (RADAR)
12:01AM -26.6318 152.6183 332° Northwest 103 119 4,200 240 Climbing Aus ATC (RADAR)
12:03AM -26.5940 152.5540 303° West 127 146 4,600 -120 Climbing Aus ATC (RADAR)
12:05AM -26.5484 152.4821 305° West 129 148 3,900 -180 Descending Aus ATC (RADAR)
12:07AM -26.5019 152.4374 319° Northwest 120 138 4,000  Climbing Aus ATC (RADAR)
12:09AM -26.4628 152.4615 29° Northeast 112 129 4,000  Level Aus ATC (RADAR)
12:10AM -26.4578 152.4789 72° East 105 121 4,000  Level Aus ATC (RADAR)
12:13AM -26.4338 152.5586 71° East 80 92 4,000  Level Aus ATC (RADAR)
12:15AM -26.4333 152.6111 89° East 90 104 4,000 -60 Level Aus ATC (RADAR)
12:17AM -26.4219 152.6765 79° East 94 108 3,800 -180 Descending Aus ATC (RADAR)
12:19AM -26.4147 152.7368 82° East 91 105 3,400 -120 Descending Aus ATC (RADAR)
12:21AM -26.4145 152.7892 90° East 93 107 3,500  Climbing Aus ATC (RADAR)
12:23AM -26.4059 152.8468 81° East 97 112 3,400 -60 Descending Aus ATC (RADAR)
12:25AM -26.4094 152.8970 94° East 92 106 3,300 -240 Descending Aus ATC (RADAR)
12:27AM -26.4386 152.9315 133° Southeast 98 113 2,600 -420 Descending Aus ATC (RADAR)
12:29AM -26.4810 152.9630 146° Southeast 90 104 1,900 -300 Descending Aus ATC (RADAR)
12:31AM -26.5230 152.9952 146° Southeast 90 104 1,600 -180 Descending Aus ATC (RADAR)
12:32AM -26.5522 153.0210 142° Southeast 80 92 1,400 -300 Descending Aus ATC (RADAR)
12:34AM -26.5804 153.0564 132° Southeast 76 87 700 -360 Descending Aus ATC (RADAR)
12:36AM -26.5960 153.0792 127° Southeast 58 67 200 60 Descending Aus ATC (RADAR)
12:38AM -26.6241 153.0895 162° South 72 83 1,100 480 Climbing Aus ATC (RADAR)
12:40AM -26.6668 153.0852 185° South 90 104 2,200 420 Climbing Aus ATC (RADAR)
12:42AM -26.7136 153.0799 186° South 91 105 2,800 180 Climbing Aus ATC (RADAR)
12:43AM -26.7586 153.0746 186° South 105 121 3,000 120 Climbing Aus ATC (RADAR)
12:45AM -26.8116 153.0686 186° South 94 108 3,300 120 Climbing Aus ATC (RADAR)
12:47AM -26.8635 153.0688 180° South 105 121 3,600  Climbing Aus ATC (RADAR)
12:49AM -26.8856 153.0682 181° South 101 116 3,500 -60 Descending Aus ATC (RADAR)
12:51AM -26.9059 153.0752 163° South 67 77 3,500  Level Aus ATC (RADAR)
12:53AM -26.9296 153.0763 178° South 52 60 3,500 -60 Level Aus ATC (RADAR)
12:54AM -26.9453 153.0767 179° South 59 68 3,400 -240 Descending Aus ATC (RADAR)
12:56AM -26.9884 153.0578 201° Southwest 96 110 2,600 -420 Descending Aus ATC (RADAR)
12:58AM -27.0455 153.0522 185° South 102 117 1,900 -300 Descending Aus ATC (RADAR)
01:00AM -27.0928 153.0511 181° South 94 108 1,600 -120 Descending Aus ATC (RADAR)
01:02AM -27.1501 153.0468 184° South 95 109 1,600 -60 Level Aus ATC (RADAR)
01:04AM -27.1965 153.0555 170° South 86 99 1,500 -180 Descending Aus ATC (RADAR)
01:06AM -27.1923 153.0714 74° East 107 123 1,100 -240 Descending Aus ATC (RADAR)
01:10AM -27.1615 153.0363 315° West  Level FlightAware Approximate
01:17AM -27.0175 152.8727 315° West  Level FlightAware Approximate
01:18AM -26.9969 152.8493 315° West  Level FlightAware Approximate
01:19AM -26.9763 152.8260 315° West  Level FlightAware Approximate
01:20AM -26.9557 152.8027 315° West  Level FlightAware Approximate
01:21AM -26.9351 152.7794 315° West  Level FlightAware Approximate
01:22AM -26.9145 152.7561 315° West  Level FlightAware Approximate
01:23AM -26.8939 152.7328 315° West  Level FlightAware Approximate
01:24AM -26.8733 152.7095 315° West  Level FlightAware Approximate
01:25AM -26.8527 152.6862 315° West  Level FlightAware Approximate
01:26AM -26.8320 152.6629 315° West  Level FlightAware Approximate
01:27AM -26.8114 152.6397 315° West  Level FlightAware Approximate